Terminal Aerodrome Forecast
Issued by NWS

Home | Current Version | Previous Version | Text Only | Print | Product List | Glossary On
Versions: 1 2 3 4 5 6 7 8 9 10 11 12 13 14 15 16 17 18 19 20 21 22
000
FTUS43 KDLH 110411 AAB
TAFHIB
TAF AMD
KHIB 110411Z 1104/1124 10003KT P6SM SCT021 BKN130
      TEMPO 1104/1106 BKN021
     FM111000 08004KT P6SM -SHSN SCT012 OVC030
     FM111300 10005KT 2SM -SN BR SCT008 OVC012
     FM111500 08008KT 1 1/2SM -SN BR OVC008
     FM112100 03006KT 3SM -SN BR OVC010=

USA.gov is the U.S. government's official web portal to all federal, state and local government web resources and services.